sensor_id;sensor_type;location;lat;lon;timestamp;P1;durP1;ratioP1;P2;durP2;ratioP2
20671;SDS011;10495;50.922;4.760;2022-09-13T00:00:51;5.63;;;3.27;;
20671;SDS011;10495;50.922;4.760;2022-09-13T00:03:18;3.07;;;2.13;;
20671;SDS011;10495;50.922;4.760;2022-09-13T00:05:44;4.40;;;2.60;;
20671;SDS011;10495;50.922;4.760;2022-09-13T00:08:10;4.00;;;2.43;;
20671;SDS011;10495;50.922;4.760;2022-09-13T00:10:37;6.50;;;2.80;;
20671;SDS011;10495;50.922;4.760;2022-09-13T00:13:05;4.30;;;2.63;;
20671;SDS011;10495;50.922;4.760;2022-09-13T00:15:32;4.43;;;3.27;;
20671;SDS011;10495;50.922;4.760;2022-09-13T00:17:58;3.70;;;2.70;;
20671;SDS011;10495;50.922;4.760;2022-09-13T00:20:24;2.60;;;2.40;;
20671;SDS011;10495;50.922;4.760;2022-09-13T00:22:50;3.57;;;2.60;;
20671;SDS011;10495;50.922;4.760;2022-09-13T00:25:16;3.00;;;2.50;;
20671;SDS011;10495;50.922;4.760;2022-09-13T00:27:42;2.70;;;2.40;;
20671;SDS011;10495;50.922;4.760;2022-09-13T00:30:09;2.83;;;2.43;;
20671;SDS011;10495;50.922;4.760;2022-09-13T00:32:36;3.27;;;2.57;;
20671;SDS011;10495;50.922;4.760;2022-09-13T00:35:02;3.13;;;2.60;;
20671;SDS011;10495;50.922;4.760;2022-09-13T00:37:29;3.93;;;2.73;;
20671;SDS011;10495;50.922;4.760;2022-09-13T00:39:55;3.73;;;2.43;;
20671;SDS011;10495;50.922;4.760;2022-09-13T00:42:24;2.67;;;2.30;;
20671;SDS011;10495;50.922;4.760;2022-09-13T00:44:52;2.63;;;2.43;;
20671;SDS011;10495;50.922;4.760;2022-09-13T00:52:34;2.83;;;2.50;;
20671;SDS011;10495;50.922;4.760;2022-09-13T00:55:03;3.87;;;2.87;;
20671;SDS011;10495;50.922;4.760;2022-09-13T00:57:33;5.83;;;2.90;;
20671;SDS011;10495;50.922;4.760;2022-09-13T01:00:05;5.10;;;2.20;;
20671;SDS011;10495;50.922;4.760;2022-09-13T01:02:41;4.17;;;3.27;;
20671;SDS011;10495;50.922;4.760;2022-09-13T01:05:10;8.00;;;2.50;;
20671;SDS011;10495;50.922;4.760;2022-09-13T01:07:38;3.20;;;2.33;;
20671;SDS011;10495;50.922;4.760;2022-09-13T01:10:04;3.80;;;2.70;;
20671;SDS011;10495;50.922;4.760;2022-09-13T01:15:39;2.83;;;2.57;;
20671;SDS011;10495;50.922;4.760;2022-09-13T01:18:06;4.60;;;2.67;;
20671;SDS011;10495;50.922;4.760;2022-09-13T01:46:04;4.83;;;3.20;;
20671;SDS011;10495;50.922;4.760;2022-09-13T01:51:36;3.97;;;2.30;;
20671;SDS011;10495;50.922;4.760;2022-09-13T02:02:10;2.90;;;2.63;;
20671;SDS011;10495;50.922;4.760;2022-09-13T02:04:51;2.90;;;2.53;;
20671;SDS011;10495;50.922;4.760;2022-09-13T02:07:25;5.83;;;2.83;;
20671;SDS011;10495;50.922;4.760;2022-09-13T02:09:59;3.13;;;2.67;;
20671;SDS011;10495;50.922;4.760;2022-09-13T02:12:30;3.30;;;2.97;;
20671;SDS011;10495;50.922;4.760;2022-09-13T02:15:06;5.33;;;2.90;;
20671;SDS011;10495;50.922;4.760;2022-09-13T02:17:47;2.83;;;2.53;;
20671;SDS011;10495;50.922;4.760;2022-09-13T02:20:36;4.63;;;2.90;;
20671;SDS011;10495;50.922;4.760;2022-09-13T02:23:09;3.13;;;2.83;;
20671;SDS011;10495;50.922;4.760;2022-09-13T02:25:42;5.37;;;3.10;;
20671;SDS011;10495;50.922;4.760;2022-09-13T02:28:11;3.97;;;2.47;;
20671;SDS011;10495;50.922;4.760;2022-09-13T02:30:46;2.77;;;2.33;;
20671;SDS011;10495;50.922;4.760;2022-09-13T02:33:17;3.77;;;3.00;;
20671;SDS011;10495;50.922;4.760;2022-09-13T02:35:51;3.30;;;2.80;;
20671;SDS011;10495;50.922;4.760;2022-09-13T02:38:42;5.47;;;2.83;;
20671;SDS011;10495;50.922;4.760;2022-09-13T02:41:29;5.27;;;2.80;;
20671;SDS011;10495;50.922;4.760;2022-09-13T03:01:10;9.07;;;2.93;;
20671;SDS011;10495;50.922;4.760;2022-09-13T03:03:37;2.90;;;2.70;;
20671;SDS011;10495;50.922;4.760;2022-09-13T03:06:03;4.77;;;3.50;;
20671;SDS011;10495;50.922;4.760;2022-09-13T03:08:29;5.87;;;3.23;;
20671;SDS011;10495;50.922;4.760;2022-09-13T03:13:54;3.00;;;2.70;;
20671;SDS011;10495;50.922;4.760;2022-09-13T03:24:23;5.47;;;2.80;;
20671;SDS011;10495;50.922;4.760;2022-09-13T03:29:31;2.60;;;2.40;;
20671;SDS011;10495;50.922;4.760;2022-09-13T03:32:17;3.07;;;2.77;;
20671;SDS011;10495;50.922;4.760;2022-09-13T03:34:53;3.53;;;2.77;;
20671;SDS011;10495;50.922;4.760;2022-09-13T03:40:09;3.30;;;2.83;;
20671;SDS011;10495;50.922;4.760;2022-09-13T03:45:09;3.23;;;2.70;;
20671;SDS011;10495;50.922;4.760;2022-09-13T03:47:39;3.67;;;2.90;;
20671;SDS011;10495;50.922;4.760;2022-09-13T03:50:06;3.27;;;2.83;;
20671;SDS011;10495;50.922;4.760;2022-09-13T03:52:34;4.13;;;3.30;;
20671;SDS011;10495;50.922;4.760;2022-09-13T03:55:00;3.70;;;2.90;;
20671;SDS011;10495;50.922;4.760;2022-09-13T03:57:26;3.20;;;2.90;;
20671;SDS011;10495;50.922;4.760;2022-09-13T03:59:53;3.63;;;3.27;;
20671;SDS011;10495;50.922;4.760;2022-09-13T04:02:21;3.57;;;2.87;;
20671;SDS011;10495;50.922;4.760;2022-09-13T04:04:48;2.80;;;2.40;;
20671;SDS011;10495;50.922;4.760;2022-09-13T04:07:15;3.73;;;2.77;;
20671;SDS011;10495;50.922;4.760;2022-09-13T04:09:42;2.73;;;2.53;;
20671;SDS011;10495;50.922;4.760;2022-09-13T04:12:08;2.93;;;2.60;;
20671;SDS011;10495;50.922;4.760;2022-09-13T04:14:34;6.67;;;2.77;;
20671;SDS011;10495;50.922;4.760;2022-09-13T04:17:00;4.00;;;2.60;;
20671;SDS011;10495;50.922;4.760;2022-09-13T04:19:26;3.97;;;2.57;;
20671;SDS011;10495;50.922;4.760;2022-09-13T04:21:53;4.43;;;2.77;;
20671;SDS011;10495;50.922;4.760;2022-09-13T04:24:19;3.97;;;3.00;;
20671;SDS011;10495;50.922;4.760;2022-09-13T04:26:48;3.33;;;2.57;;
20671;SDS011;10495;50.922;4.760;2022-09-13T04:29:18;3.37;;;2.70;;
20671;SDS011;10495;50.922;4.760;2022-09-13T04:31:45;8.63;;;3.37;;
20671;SDS011;10495;50.922;4.760;2022-09-13T04:34:11;4.57;;;2.67;;
20671;SDS011;10495;50.922;4.760;2022-09-13T04:36:37;5.13;;;2.97;;
20671;SDS011;10495;50.922;4.760;2022-09-13T04:39:03;3.83;;;2.83;;
20671;SDS011;10495;50.922;4.760;2022-09-13T04:41:28;3.17;;;2.87;;
20671;SDS011;10495;50.922;4.760;2022-09-13T04:43:56;3.33;;;2.50;;
20671;SDS011;10495;50.922;4.760;2022-09-13T04:46:21;3.03;;;2.67;;
20671;SDS011;10495;50.922;4.760;2022-09-13T04:48:47;4.77;;;2.90;;
20671;SDS011;10495;50.922;4.760;2022-09-13T04:51:14;3.33;;;2.30;;
20671;SDS011;10495;50.922;4.760;2022-09-13T04:53:39;3.33;;;2.90;;
20671;SDS011;10495;50.922;4.760;2022-09-13T04:56:05;3.03;;;2.40;;
20671;SDS011;10495;50.922;4.760;2022-09-13T04:58:31;5.00;;;3.17;;
20671;SDS011;10495;50.922;4.760;2022-09-13T05:01:04;2.83;;;2.53;;
20671;SDS011;10495;50.922;4.760;2022-09-13T05:03:31;3.03;;;2.73;;
20671;SDS011;10495;50.922;4.760;2022-09-13T05:06:04;3.60;;;2.13;;
20671;SDS011;10495;50.922;4.760;2022-09-13T05:08:34;3.60;;;2.57;;
20671;SDS011;10495;50.922;4.760;2022-09-13T05:11:01;3.30;;;2.83;;
20671;SDS011;10495;50.922;4.760;2022-09-13T05:13:27;2.93;;;2.53;;
20671;SDS011;10495;50.922;4.760;2022-09-13T05:15:56;3.43;;;2.70;;
20671;SDS011;10495;50.922;4.760;2022-09-13T05:18:29;3.30;;;2.90;;
20671;SDS011;10495;50.922;4.760;2022-09-13T05:20:56;5.97;;;3.20;;
20671;SDS011;10495;50.922;4.760;2022-09-13T05:23:24;5.17;;;3.10;;
20671;SDS011;10495;50.922;4.760;2022-09-13T05:25:54;3.30;;;2.80;;
20671;SDS011;10495;50.922;4.760;2022-09-13T05:28:21;2.73;;;2.40;;
20671;SDS011;10495;50.922;4.760;2022-09-13T05:33:39;3.27;;;2.80;;
20671;SDS011;10495;50.922;4.760;2022-09-13T05:36:05;3.87;;;2.60;;
20671;SDS011;10495;50.922;4.760;2022-09-13T05:38:31;2.93;;;2.63;;
20671;SDS011;10495;50.922;4.760;2022-09-13T05:40:57;5.97;;;2.80;;
20671;SDS011;10495;50.922;4.760;2022-09-13T05:43:25;3.83;;;2.80;;
20671;SDS011;10495;50.922;4.760;2022-09-13T05:45:59;3.23;;;2.93;;
20671;SDS011;10495;50.922;4.760;2022-09-13T05:48:29;3.23;;;2.90;;
20671;SDS011;10495;50.922;4.760;2022-09-13T05:51:02;4.20;;;3.07;;
20671;SDS011;10495;50.922;4.760;2022-09-13T05:53:28;5.00;;;3.00;;
20671;SDS011;10495;50.922;4.760;2022-09-13T05:55:54;4.17;;;2.80;;
20671;SDS011;10495;50.922;4.760;2022-09-13T05:58:20;3.97;;;3.00;;
20671;SDS011;10495;50.922;4.760;2022-09-13T06:00:51;4.60;;;3.13;;
20671;SDS011;10495;50.922;4.760;2022-09-13T06:03:21;4.97;;;2.73;;
20671;SDS011;10495;50.922;4.760;2022-09-13T06:05:47;5.37;;;3.13;;
20671;SDS011;10495;50.922;4.760;2022-09-13T06:08:13;3.63;;;3.13;;
20671;SDS011;10495;50.922;4.760;2022-09-13T06:10:39;3.00;;;2.70;;
20671;SDS011;10495;50.922;4.760;2022-09-13T06:13:05;3.20;;;2.90;;
20671;SDS011;10495;50.922;4.760;2022-09-13T06:15:30;4.93;;;2.80;;
20671;SDS011;10495;50.922;4.760;2022-09-13T06:17:56;2.70;;;2.47;;
20671;SDS011;10495;50.922;4.760;2022-09-13T06:20:22;6.47;;;3.20;;
20671;SDS011;10495;50.922;4.760;2022-09-13T06:22:48;4.80;;;3.47;;
20671;SDS011;10495;50.922;4.760;2022-09-13T06:25:14;3.30;;;3.00;;
20671;SDS011;10495;50.922;4.760;2022-09-13T06:27:40;7.73;;;3.17;;
20671;SDS011;10495;50.922;4.760;2022-09-13T06:30:06;2.83;;;2.53;;
20671;SDS011;10495;50.922;4.760;2022-09-13T06:32:33;4.00;;;3.20;;
20671;SDS011;10495;50.922;4.760;2022-09-13T06:34:59;2.93;;;2.63;;
20671;SDS011;10495;50.922;4.760;2022-09-13T06:37:25;4.40;;;2.70;;
20671;SDS011;10495;50.922;4.760;2022-09-13T06:39:50;3.30;;;3.00;;
20671;SDS011;10495;50.922;4.760;2022-09-13T06:42:16;4.17;;;2.63;;
20671;SDS011;10495;50.922;4.760;2022-09-13T06:44:42;3.70;;;2.87;;
20671;SDS011;10495;50.922;4.760;2022-09-13T06:47:10;5.77;;;2.87;;
20671;SDS011;10495;50.922;4.760;2022-09-13T06:49:36;5.77;;;3.00;;
20671;SDS011;10495;50.922;4.760;2022-09-13T06:52:01;6.57;;;3.20;;
20671;SDS011;10495;50.922;4.760;2022-09-13T06:54:27;10.70;;;3.30;;
20671;SDS011;10495;50.922;4.760;2022-09-13T06:56:53;4.53;;;2.80;;
20671;SDS011;10495;50.922;4.760;2022-09-13T06:59:18;5.27;;;3.10;;
20671;SDS011;10495;50.922;4.760;2022-09-13T07:01:44;3.10;;;2.80;;
20671;SDS011;10495;50.922;4.760;2022-09-13T07:04:19;6.00;;;2.87;;
20671;SDS011;10495;50.922;4.760;2022-09-13T07:06:46;5.33;;;2.97;;
20671;SDS011;10495;50.922;4.760;2022-09-13T07:09:14;5.47;;;3.03;;
20671;SDS011;10495;50.922;4.760;2022-09-13T07:11:42;8.60;;;3.43;;
20671;SDS011;10495;50.922;4.760;2022-09-13T07:14:11;4.87;;;3.23;;
20671;SDS011;10495;50.922;4.760;2022-09-13T07:16:41;2.57;;;2.37;;
20671;SDS011;10495;50.922;4.760;2022-09-13T07:19:12;9.13;;;3.30;;
20671;SDS011;10495;50.922;4.760;2022-09-13T07:21:42;4.53;;;3.27;;
20671;SDS011;10495;50.922;4.760;2022-09-13T07:24:08;5.30;;;3.30;;
20671;SDS011;10495;50.922;4.760;2022-09-13T07:26:34;6.00;;;3.03;;
20671;SDS011;10495;50.922;4.760;2022-09-13T07:29:01;5.20;;;3.17;;
20671;SDS011;10495;50.922;4.760;2022-09-13T07:31:30;5.63;;;3.03;;
20671;SDS011;10495;50.922;4.760;2022-09-13T07:34:04;3.33;;;3.03;;
20671;SDS011;10495;50.922;4.760;2022-09-13T07:36:32;9.45;;;3.80;;
20671;SDS011;10495;50.922;4.760;2022-09-13T07:38:59;3.78;;;2.92;;
20671;SDS011;10495;50.922;4.760;2022-09-13T07:41:26;3.50;;;3.10;;
20671;SDS011;10495;50.922;4.760;2022-09-13T07:43:52;4.10;;;3.17;;
20671;SDS011;10495;50.922;4.760;2022-09-13T07:46:22;7.70;;;3.30;;
20671;SDS011;10495;50.922;4.760;2022-09-13T07:48:51;7.03;;;3.38;;
20671;SDS011;10495;50.922;4.760;2022-09-13T07:51:19;8.20;;;3.75;;
20671;SDS011;10495;50.922;4.760;2022-09-13T07:53:46;6.05;;;3.38;;
20671;SDS011;10495;50.922;4.760;2022-09-13T07:56:17;5.60;;;2.92;;
20671;SDS011;10495;50.922;4.760;2022-09-13T07:58:45;6.30;;;3.10;;
20671;SDS011;10495;50.922;4.760;2022-09-13T08:03:56;3.38;;;2.97;;
20671;SDS011;10495;50.922;4.760;2022-09-13T08:06:23;5.60;;;3.60;;
20671;SDS011;10495;50.922;4.760;2022-09-13T08:08:50;8.75;;;3.40;;
20671;SDS011;10495;50.922;4.760;2022-09-13T08:11:17;4.18;;;3.13;;
20671;SDS011;10495;50.922;4.760;2022-09-13T08:13:45;7.25;;;3.08;;
20671;SDS011;10495;50.922;4.760;2022-09-13T08:16:12;5.18;;;3.15;;
20671;SDS011;10495;50.922;4.760;2022-09-13T08:18:42;5.57;;;3.40;;
20671;SDS011;10495;50.922;4.760;2022-09-13T08:21:18;5.00;;;3.60;;
20671;SDS011;10495;50.922;4.760;2022-09-13T08:23:44;5.05;;;3.40;;
20671;SDS011;10495;50.922;4.760;2022-09-13T08:26:11;8.15;;;3.92;;
20671;SDS011;10495;50.922;4.760;2022-09-13T08:28:37;3.40;;;3.10;;
20671;SDS011;10495;50.922;4.760;2022-09-13T08:33:41;4.30;;;3.45;;
20671;SDS011;10495;50.922;4.760;2022-09-13T08:36:12;4.43;;;3.45;;
20671;SDS011;10495;50.922;4.760;2022-09-13T08:38:39;10.25;;;3.72;;
20671;SDS011;10495;50.922;4.760;2022-09-13T08:43:57;5.85;;;3.03;;
20671;SDS011;10495;50.922;4.760;2022-09-13T08:46:45;5.88;;;3.60;;
20671;SDS011;10495;50.922;4.760;2022-09-13T08:49:22;7.60;;;4.03;;
20671;SDS011;10495;50.922;4.760;2022-09-13T08:52:15;3.97;;;3.20;;
20671;SDS011;10495;50.922;4.760;2022-09-13T08:54:44;5.82;;;3.45;;
20671;SDS011;10495;50.922;4.760;2022-09-13T08:57:14;5.18;;;3.80;;
20671;SDS011;10495;50.922;4.760;2022-09-13T09:05:58;5.43;;;3.88;;
20671;SDS011;10495;50.922;4.760;2022-09-13T09:11:02;5.07;;;3.28;;
20671;SDS011;10495;50.922;4.760;2022-09-13T09:13:34;5.22;;;3.72;;
20671;SDS011;10495;50.922;4.760;2022-09-13T09:18:58;6.43;;;4.57;;
20671;SDS011;10495;50.922;4.760;2022-09-13T09:21:36;5.10;;;3.47;;
20671;SDS011;10495;50.922;4.760;2022-09-13T09:24:02;5.65;;;4.22;;
20671;SDS011;10495;50.922;4.760;2022-09-13T09:26:29;4.47;;;3.72;;
20671;SDS011;10495;50.922;4.760;2022-09-13T09:29:07;5.63;;;4.20;;
20671;SDS011;10495;50.922;4.760;2022-09-13T09:37:24;6.82;;;4.22;;
20671;SDS011;10495;50.922;4.760;2022-09-13T09:39:52;5.43;;;4.32;;
20671;SDS011;10495;50.922;4.760;2022-09-13T09:42:20;7.68;;;4.25;;
20671;SDS011;10495;50.922;4.760;2022-09-13T09:44:52;5.85;;;3.92;;
20671;SDS011;10495;50.922;4.760;2022-09-13T09:47:43;5.43;;;4.07;;
20671;SDS011;10495;50.922;4.760;2022-09-13T09:50:10;7.35;;;4.00;;
20671;SDS011;10495;50.922;4.760;2022-09-13T09:55:30;4.05;;;3.60;;
20671;SDS011;10495;50.922;4.760;2022-09-13T09:58:00;7.20;;;4.03;;
20671;SDS011;10495;50.922;4.760;2022-09-13T10:00:31;4.65;;;3.92;;
20671;SDS011;10495;50.922;4.760;2022-09-13T10:03:01;6.70;;;4.20;;
20671;SDS011;10495;50.922;4.760;2022-09-13T10:05:33;8.73;;;3.67;;
20671;SDS011;10495;50.922;4.760;2022-09-13T10:08:00;4.00;;;3.60;;
20671;SDS011;10495;50.922;4.760;2022-09-13T10:10:39;6.88;;;4.47;;
20671;SDS011;10495;50.922;4.760;2022-09-13T10:13:12;6.78;;;3.50;;
20671;SDS011;10495;50.922;4.760;2022-09-13T10:15:51;6.10;;;3.60;;
20671;SDS011;10495;50.922;4.760;2022-09-13T10:18:19;4.38;;;3.40;;
20671;SDS011;10495;50.922;4.760;2022-09-13T10:23:47;7.80;;;4.00;;
20671;SDS011;10495;50.922;4.760;2022-09-13T10:31:32;5.22;;;3.45;;
20671;SDS011;10495;50.922;4.760;2022-09-13T10:36:43;8.68;;;3.97;;
20671;SDS011;10495;50.922;4.760;2022-09-13T10:39:33;4.18;;;3.78;;
20671;SDS011;10495;50.922;4.760;2022-09-13T10:44:29;6.22;;;3.22;;
20671;SDS011;10495;50.922;4.760;2022-09-13T10:47:03;4.35;;;3.15;;
20671;SDS011;10495;50.922;4.760;2022-09-13T10:50:09;4.13;;;3.30;;
20671;SDS011;10495;50.922;4.760;2022-09-13T10:52:42;5.35;;;3.40;;
20671;SDS011;10495;50.922;4.760;2022-09-13T11:00:18;4.22;;;3.13;;
20671;SDS011;10495;50.922;4.760;2022-09-13T11:05:33;3.83;;;3.38;;
20671;SDS011;10495;50.922;4.760;2022-09-13T11:19:20;6.43;;;3.28;;
20671;SDS011;10495;50.922;4.760;2022-09-13T11:22:15;3.72;;;3.10;;
20671;SDS011;10495;50.922;4.760;2022-09-13T11:24:42;5.95;;;2.97;;
20671;SDS011;10495;50.922;4.760;2022-09-13T11:30:11;6.05;;;3.25;;
20671;SDS011;10495;50.922;4.760;2022-09-13T11:35:30;3.63;;;3.33;;
20671;SDS011;10495;50.922;4.760;2022-09-13T11:38:11;5.05;;;2.92;;
20671;SDS011;10495;50.922;4.760;2022-09-13T11:49:44;2.88;;;2.50;;
20671;SDS011;10495;50.922;4.760;2022-09-13T11:55:17;5.47;;;2.67;;
20671;SDS011;10495;50.922;4.760;2022-09-13T11:57:55;3.42;;;3.13;;
20671;SDS011;10495;50.922;4.760;2022-09-13T12:00:28;4.93;;;2.83;;
20671;SDS011;10495;50.922;4.760;2022-09-13T12:03:04;4.82;;;3.10;;
20671;SDS011;10495;50.922;4.760;2022-09-13T12:05:40;6.55;;;3.55;;
20671;SDS011;10495;50.922;4.760;2022-09-13T12:08:44;3.90;;;2.45;;
20671;SDS011;10495;50.922;4.760;2022-09-13T12:11:18;4.10;;;3.08;;
20671;SDS011;10495;50.922;4.760;2022-09-13T12:13:53;5.88;;;3.35;;
20671;SDS011;10495;50.922;4.760;2022-09-13T12:16:22;3.03;;;2.47;;
20671;SDS011;10495;50.922;4.760;2022-09-13T12:18:53;3.58;;;3.05;;
20671;SDS011;10495;50.922;4.760;2022-09-13T12:21:23;5.15;;;4.07;;
20671;SDS011;10495;50.922;4.760;2022-09-13T12:24:12;4.57;;;3.35;;
20671;SDS011;10495;50.922;4.760;2022-09-13T12:31:47;3.50;;;3.00;;
20671;SDS011;10495;50.922;4.760;2022-09-13T12:48:01;19.85;;;4.57;;
20671;SDS011;10495;50.922;4.760;2022-09-13T12:50:50;28.63;;;5.82;;
20671;SDS011;10495;50.922;4.760;2022-09-13T12:59:10;3.92;;;3.35;;
20671;SDS011;10495;50.922;4.760;2022-09-13T13:01:59;7.85;;;3.40;;
20671;SDS011;10495;50.922;4.760;2022-09-13T13:04:45;5.03;;;3.30;;
20671;SDS011;10495;50.922;4.760;2022-09-13T13:07:21;5.07;;;3.33;;
20671;SDS011;10495;50.922;4.760;2022-09-13T13:09:49;3.97;;;3.17;;
20671;SDS011;10495;50.922;4.760;2022-09-13T13:12:33;8.00;;;4.13;;
20671;SDS011;10495;50.922;4.760;2022-09-13T13:17:50;3.80;;;3.20;;
20671;SDS011;10495;50.922;4.760;2022-09-13T13:23:24;4.65;;;3.60;;
20671;SDS011;10495;50.922;4.760;2022-09-13T13:33:52;3.40;;;3.10;;
20671;SDS011;10495;50.922;4.760;2022-09-13T13:36:29;3.95;;;3.08;;
20671;SDS011;10495;50.922;4.760;2022-09-13T13:39:01;6.13;;;2.80;;
20671;SDS011;10495;50.922;4.760;2022-09-13T13:43:58;5.15;;;3.35;;
20671;SDS011;10495;50.922;4.760;2022-09-13T13:46:30;3.42;;;3.13;;
20671;SDS011;10495;50.922;4.760;2022-09-13T13:57:25;3.85;;;3.38;;
20671;SDS011;10495;50.922;4.760;2022-09-13T14:16:31;6.60;;;3.63;;
20671;SDS011;10495;50.922;4.760;2022-09-13T14:19:19;4.07;;;3.67;;
20671;SDS011;10495;50.922;4.760;2022-09-13T14:22:11;3.72;;;3.25;;
20671;SDS011;10495;50.922;4.760;2022-09-13T14:24:37;5.15;;;3.50;;
20671;SDS011;10495;50.922;4.760;2022-09-13T14:27:10;3.92;;;3.53;;
20671;SDS011;10495;50.922;4.760;2022-09-13T14:30:34;7.72;;;3.65;;
20671;SDS011;10495;50.922;4.760;2022-09-13T14:32:41;5.20;;;4.00;;
20671;SDS011;10495;50.922;4.760;2022-09-13T14:37:56;4.13;;;3.58;;
20671;SDS011;10495;50.922;4.760;2022-09-13T14:40:58;6.25;;;3.67;;
20671;SDS011;10495;50.922;4.760;2022-09-13T14:43:37;5.18;;;3.75;;
20671;SDS011;10495;50.922;4.760;2022-09-13T14:48:45;7.47;;;3.35;;
20671;SDS011;10495;50.922;4.760;2022-09-13T14:54:39;5.22;;;3.40;;
20671;SDS011;10495;50.922;4.760;2022-09-13T14:56:57;4.00;;;3.53;;
20671;SDS011;10495;50.922;4.760;2022-09-13T14:59:25;5.38;;;3.55;;
20671;SDS011;10495;50.922;4.760;2022-09-13T15:01:52;4.20;;;3.20;;
20671;SDS011;10495;50.922;4.760;2022-09-13T15:04:18;3.95;;;3.38;;
20671;SDS011;10495;50.922;4.760;2022-09-13T15:06:45;5.40;;;3.20;;
20671;SDS011;10495;50.922;4.760;2022-09-13T15:11:58;5.53;;;3.85;;
20671;SDS011;10495;50.922;4.760;2022-09-13T15:17:13;3.70;;;3.22;;
20671;SDS011;10495;50.922;4.760;2022-09-13T15:22:22;4.80;;;3.88;;
20671;SDS011;10495;50.922;4.760;2022-09-13T15:24:51;6.38;;;4.25;;
20671;SDS011;10495;50.922;4.760;2022-09-13T15:29:59;4.78;;;3.70;;
20671;SDS011;10495;50.922;4.760;2022-09-13T15:32:42;7.03;;;3.95;;
20671;SDS011;10495;50.922;4.760;2022-09-13T15:35:15;4.68;;;3.28;;
20671;SDS011;10495;50.922;4.760;2022-09-13T15:37:57;5.07;;;3.97;;
20671;SDS011;10495;50.922;4.760;2022-09-13T15:40:41;4.35;;;3.95;;
20671;SDS011;10495;50.922;4.760;2022-09-13T15:43:27;5.70;;;3.85;;
20671;SDS011;10495;50.922;4.760;2022-09-13T15:45:55;3.83;;;3.42;;
20671;SDS011;10495;50.922;4.760;2022-09-13T15:48:31;5.93;;;3.70;;
20671;SDS011;10495;50.922;4.760;2022-09-13T15:51:06;5.00;;;4.13;;
20671;SDS011;10495;50.922;4.760;2022-09-13T15:53:34;4.53;;;4.13;;
20671;SDS011;10495;50.922;4.760;2022-09-13T15:56:01;7.15;;;4.30;;
20671;SDS011;10495;50.922;4.760;2022-09-13T15:58:28;4.68;;;3.80;;
20671;SDS011;10495;50.922;4.760;2022-09-13T16:00:54;6.70;;;4.82;;
20671;SDS011;10495;50.922;4.760;2022-09-13T16:03:20;5.78;;;4.00;;
20671;SDS011;10495;50.922;4.760;2022-09-13T16:05:45;5.22;;;4.28;;
20671;SDS011;10495;50.922;4.760;2022-09-13T16:08:11;4.85;;;3.58;;
20671;SDS011;10495;50.922;4.760;2022-09-13T16:10:37;4.10;;;3.67;;
20671;SDS011;10495;50.922;4.760;2022-09-13T16:13:03;4.75;;;4.07;;
20671;SDS011;10495;50.922;4.760;2022-09-13T16:15:29;4.75;;;3.90;;
20671;SDS011;10495;50.922;4.760;2022-09-13T16:17:54;7.78;;;4.30;;
20671;SDS011;10495;50.922;4.760;2022-09-13T16:20:20;5.95;;;4.10;;
20671;SDS011;10495;50.922;4.760;2022-09-13T16:22:46;5.72;;;4.20;;
20671;SDS011;10495;50.922;4.760;2022-09-13T16:25:12;3.90;;;3.38;;
20671;SDS011;10495;50.922;4.760;2022-09-13T16:27:39;4.05;;;3.65;;
20671;SDS011;10495;50.922;4.760;2022-09-13T16:30:06;6.10;;;4.60;;
20671;SDS011;10495;50.922;4.760;2022-09-13T16:32:32;5.22;;;4.20;;
20671;SDS011;10495;50.922;4.760;2022-09-13T16:34:58;4.90;;;4.38;;
20671;SDS011;10495;50.922;4.760;2022-09-13T16:37:24;3.92;;;3.60;;
20671;SDS011;10495;50.922;4.760;2022-09-13T16:39:50;4.90;;;3.78;;
20671;SDS011;10495;50.922;4.760;2022-09-13T16:42:16;4.03;;;3.70;;
20671;SDS011;10495;50.922;4.760;2022-09-13T16:44:42;4.35;;;3.90;;
20671;SDS011;10495;50.922;4.760;2022-09-13T16:47:08;4.43;;;4.03;;
20671;SDS011;10495;50.922;4.760;2022-09-13T16:49:34;4.07;;;3.70;;
20671;SDS011;10495;50.922;4.760;2022-09-13T16:52:00;4.95;;;4.35;;
20671;SDS011;10495;50.922;4.760;2022-09-13T16:54:28;5.28;;;4.78;;
20671;SDS011;10495;50.922;4.760;2022-09-13T16:56:55;5.28;;;4.13;;
20671;SDS011;10495;50.922;4.760;2022-09-13T16:59:21;6.03;;;5.43;;
20671;SDS011;10495;50.922;4.760;2022-09-13T17:01:47;6.65;;;5.30;;
20671;SDS011;10495;50.922;4.760;2022-09-13T17:04:13;6.13;;;4.93;;
20671;SDS011;10495;50.922;4.760;2022-09-13T17:06:38;9.07;;;5.20;;
20671;SDS011;10495;50.922;4.760;2022-09-13T17:09:05;6.63;;;4.95;;
20671;SDS011;10495;50.922;4.760;2022-09-13T17:11:32;5.20;;;4.28;;
20671;SDS011;10495;50.922;4.760;2022-09-13T17:14:00;6.22;;;4.82;;
20671;SDS011;10495;50.922;4.760;2022-09-13T17:16:28;6.53;;;4.15;;
20671;SDS011;10495;50.922;4.760;2022-09-13T17:18:59;8.32;;;4.25;;
20671;SDS011;10495;50.922;4.760;2022-09-13T17:21:26;6.68;;;4.70;;
20671;SDS011;10495;50.922;4.760;2022-09-13T17:23:53;4.30;;;3.90;;
20671;SDS011;10495;50.922;4.760;2022-09-13T17:26:19;8.77;;;4.65;;
20671;SDS011;10495;50.922;4.760;2022-09-13T17:28:46;5.35;;;4.00;;
20671;SDS011;10495;50.922;4.760;2022-09-13T17:31:11;6.47;;;4.97;;
20671;SDS011;10495;50.922;4.760;2022-09-13T17:33:37;6.88;;;5.05;;
20671;SDS011;10495;50.922;4.760;2022-09-13T17:36:06;5.78;;;4.90;;
20671;SDS011;10495;50.922;4.760;2022-09-13T17:38:33;4.78;;;3.83;;
20671;SDS011;10495;50.922;4.760;2022-09-13T17:41:00;6.32;;;4.55;;
20671;SDS011;10495;50.922;4.760;2022-09-13T17:43:29;4.78;;;3.80;;
20671;SDS011;10495;50.922;4.760;2022-09-13T17:45:55;3.75;;;3.45;;
20671;SDS011;10495;50.922;4.760;2022-09-13T17:48:21;4.03;;;3.58;;
20671;SDS011;10495;50.922;4.760;2022-09-13T17:50:47;4.38;;;3.97;;
20671;SDS011;10495;50.922;4.760;2022-09-13T17:53:12;4.05;;;3.65;;
20671;SDS011;10495;50.922;4.760;2022-09-13T17:55:45;5.88;;;3.95;;
20671;SDS011;10495;50.922;4.760;2022-09-13T17:58:12;5.35;;;4.05;;
20671;SDS011;10495;50.922;4.760;2022-09-13T18:00:38;4.97;;;3.67;;
20671;SDS011;10495;50.922;4.760;2022-09-13T18:03:04;4.72;;;3.97;;
20671;SDS011;10495;50.922;4.760;2022-09-13T18:05:29;6.22;;;5.05;;
20671;SDS011;10495;50.922;4.760;2022-09-13T18:07:55;8.00;;;6.47;;
20671;SDS011;10495;50.922;4.760;2022-09-13T18:10:21;9.30;;;6.97;;
20671;SDS011;10495;50.922;4.760;2022-09-13T18:12:47;6.53;;;5.65;;
20671;SDS011;10495;50.922;4.760;2022-09-13T18:15:12;6.43;;;4.90;;
20671;SDS011;10495;50.922;4.760;2022-09-13T18:17:38;4.97;;;4.22;;
20671;SDS011;10495;50.922;4.760;2022-09-13T18:20:04;5.00;;;3.75;;
20671;SDS011;10495;50.922;4.760;2022-09-13T18:22:29;3.78;;;3.35;;
20671;SDS011;10495;50.922;4.760;2022-09-13T18:24:55;5.38;;;4.25;;
20671;SDS011;10495;50.922;4.760;2022-09-13T18:27:21;6.93;;;4.85;;
20671;SDS011;10495;50.922;4.760;2022-09-13T18:29:46;5.83;;;5.03;;
20671;SDS011;10495;50.922;4.760;2022-09-13T18:32:12;6.95;;;5.28;;
20671;SDS011;10495;50.922;4.760;2022-09-13T18:34:37;8.18;;;5.72;;
20671;SDS011;10495;50.922;4.760;2022-09-13T18:37:06;6.13;;;5.30;;
20671;SDS011;10495;50.922;4.760;2022-09-13T18:39:31;9.70;;;5.28;;
20671;SDS011;10495;50.922;4.760;2022-09-13T18:41:57;5.00;;;4.50;;
20671;SDS011;10495;50.922;4.760;2022-09-13T18:44:24;6.88;;;4.70;;
20671;SDS011;10495;50.922;4.760;2022-09-13T18:46:54;5.43;;;4.27;;
20671;SDS011;10495;50.922;4.760;2022-09-13T18:49:20;8.00;;;5.80;;
20671;SDS011;10495;50.922;4.760;2022-09-13T18:51:46;6.63;;;5.77;;
20671;SDS011;10495;50.922;4.760;2022-09-13T18:54:14;4.63;;;4.17;;
20671;SDS011;10495;50.922;4.760;2022-09-13T18:56:41;6.00;;;4.80;;
20671;SDS011;10495;50.922;4.760;2022-09-13T18:59:08;4.73;;;4.03;;
20671;SDS011;10495;50.922;4.760;2022-09-13T19:01:35;4.65;;;4.13;;
20671;SDS011;10495;50.922;4.760;2022-09-13T19:04:21;4.73;;;4.10;;
20671;SDS011;10495;50.922;4.760;2022-09-13T19:06:48;5.27;;;4.10;;
20671;SDS011;10495;50.922;4.760;2022-09-13T19:09:15;4.70;;;3.65;;
20671;SDS011;10495;50.922;4.760;2022-09-13T19:11:42;4.27;;;3.87;;